Time;durP1;ratioP1;P1;durP2;ratioP2;P2;SDS_P1;SDS_P2;PMS_P1;PMS_P2;Temp;Humidity;BMP_temperature;BMP_pressure;BME280_temperature;BME280_humidity;BME280_pressure;Samples;Min_cycle;Max_cycle;Signal;HPM_P1;HPM_P2
2022/03/18 00:00:33;;;;;;;1999.90;999.90;;;;;;;0.87;58.97;103306.97;4949253;28;98234;-74
2022/03/18 00:03:02;;;;;;;1999.90;999.90;;;;;;;0.84;58.73;103315.47;4927570;28;99325;-74
2022/03/18 00:05:29;;;;;;;1999.90;999.90;;;;;;;0.82;58.84;103317.00;4952837;28;96898;-74
2022/03/18 00:07:57;;;;;;;1999.90;999.90;;;;;;;0.81;58.86;103320.38;4930911;28;97211;-74
2022/03/18 00:10:25;;;;;;;1999.90;999.90;;;;;;;0.82;58.92;103326.56;4945038;28;99344;-74
2022/03/18 00:12:54;;;;;;;1999.90;999.90;;;;;;;0.82;58.70;103334.44;4945071;28;99012;-74
2022/03/18 00:15:23;;;;;;;1999.90;999.90;;;;;;;0.83;58.94;103323.19;4948163;28;97617;-74
2022/03/18 00:17:51;;;;;;;1999.90;999.90;;;;;;;0.83;58.88;103333.69;4947361;28;96800;-74
2022/03/18 00:20:19;;;;;;;1999.90;999.90;;;;;;;0.83;59.11;103331.06;4939958;28;97933;-75
2022/03/18 00:22:48;;;;;;;1999.90;999.90;;;;;;;0.81;58.81;103329.97;4944649;28;98871;-74
2022/03/18 00:25:17;;;;;;;1999.90;999.90;;;;;;;0.79;59.09;103336.75;4944133;28;97093;-74
2022/03/18 00:27:46;;;;;;;1999.90;999.90;;;;;;;0.79;58.81;103334.13;4945786;28;96853;-73
2022/03/18 00:30:17;;;;;;;1999.90;999.90;;;;;;;0.78;58.51;103332.25;4923934;28;98631;-74
2022/03/18 00:32:45;;;;;;;1999.90;999.90;;;;;;;0.78;59.09;103348.00;4929564;28;99255;-74
2022/03/18 00:35:34;;;;;;;1999.90;999.90;;;;;;;0.75;58.96;103337.19;4948474;28;96765;-74
2022/03/18 00:38:02;;;;;;;1999.90;999.90;;;;;;;0.74;58.98;103343.22;4944498;28;97748;-73
2022/03/18 00:40:30;;;;;;;1999.90;999.90;;;;;;;0.70;58.78;103341.06;4945850;28;98871;-74
2022/03/18 00:43:00;;;;;;;1999.90;999.90;;;;;;;0.70;58.75;103343.69;4944425;28;99538;-74
2022/03/18 00:45:29;;;;;;;1999.90;999.90;;;;;;;0.66;59.01;103338.91;4940525;28;97133;-74
2022/03/18 00:53:42;;;;;;;1999.90;999.90;;;;;;;0.63;58.80;103343.84;4884538;28;100484;-74
2022/03/18 00:56:10;;;;;;;1999.90;999.90;;;;;;;0.64;58.73;103345.66;4889351;28;98308;-73
2022/03/18 00:58:38;;;;;;;1999.90;999.90;;;;;;;0.62;58.53;103347.22;4897705;28;96773;-74
2022/03/18 01:01:07;;;;;;;1999.90;999.90;;;;;;;0.59;59.04;103349.53;4943278;28;101024;-74
2022/03/18 01:03:35;;;;;;;1999.90;999.90;;;;;;;0.55;59.26;103355.22;4943849;28;99132;-74
2022/03/18 01:06:03;;;;;;;1999.90;999.90;;;;;;;0.52;58.87;103350.56;4944779;28;96882;-74
2022/03/18 01:08:31;;;;;;;1999.90;999.90;;;;;;;0.48;58.81;103357.97;4945414;28;96745;-74
2022/03/18 01:11:01;;;;;;;1999.90;999.90;;;;;;;0.40;58.98;103348.41;4942336;28;99153;-74
2022/03/18 01:13:28;;;;;;;1999.90;999.90;;;;;;;0.34;59.10;103359.16;4943533;28;97507;-74
2022/03/18 01:15:56;;;;;;;1999.90;999.90;;;;;;;0.28;59.02;103352.38;4941225;28;96767;-74
2022/03/18 01:18:25;;;;;;;1999.90;999.90;;;;;;;0.23;58.92;103360.66;4945506;28;96812;-74
2022/03/18 01:20:53;;;;;;;1999.90;999.90;;;;;;;0.20;58.95;103364.66;4945543;28;100308;-74
2022/03/18 01:23:20;;;;;;;1999.90;999.90;;;;;;;0.14;59.34;103370.19;4936591;28;98894;-73
2022/03/18 01:25:48;;;;;;;1999.90;999.90;;;;;;;0.11;59.15;103371.56;4941836;28;98034;-73
2022/03/18 01:28:16;;;;;;;1999.90;999.90;;;;;;;0.10;59.23;103377.56;4929785;28;96965;-74
2022/03/18 01:30:43;;;;;;;1999.90;999.90;;;;;;;0.09;59.06;103381.88;4945919;28;97764;-74
2022/03/18 01:33:11;;;;;;;1999.90;999.90;;;;;;;0.05;59.04;103384.94;4946651;28;99219;-74
2022/03/18 01:35:40;;;;;;;1999.90;999.90;;;;;;;0.04;59.00;103380.47;4941290;28;96815;-74
2022/03/18 01:38:08;;;;;;;1999.90;999.90;;;;;;;-0.00;59.13;103377.34;4943852;28;96783;-74
2022/03/18 01:40:35;;;;;;;1999.90;999.90;;;;;;;-0.06;59.16;103380.25;4945895;28;97697;-74
2022/03/18 01:43:07;;;;;;;1999.90;999.90;;;;;;;-0.12;59.18;103384.84;4941586;28;100533;-74
2022/03/18 01:45:36;;;;;;;1999.90;999.90;;;;;;;-0.15;59.44;103381.91;4943472;28;97223;-73
2022/03/18 01:48:05;;;;;;;1999.90;999.90;;;;;;;-0.17;59.15;103386.06;4942705;28;98760;-74
2022/03/18 01:50:33;;;;;;;1999.90;999.90;;;;;;;-0.21;59.32;103380.34;4939336;28;99671;-73
2022/03/18 01:53:02;;;;;;;1999.90;999.90;;;;;;;-0.22;59.15;103386.31;4944894;28;97982;-73
2022/03/18 01:55:30;;;;;;;1999.90;999.90;;;;;;;-0.24;59.30;103386.16;4944953;28;96971;-74
2022/03/18 01:57:58;;;;;;;1999.90;999.90;;;;;;;-0.22;59.18;103387.25;4947398;28;98554;-74
2022/03/18 02:00:26;;;;;;;1999.90;999.90;;;;;;;-0.22;59.16;103389.88;4942204;28;99283;-74
2022/03/18 02:02:53;;;;;;;1999.90;999.90;;;;;;;-0.22;59.25;103397.72;4942729;28;100435;-74
2022/03/18 02:05:22;;;;;;;1999.90;999.90;;;;;;;-0.20;59.12;103406.69;4940750;28;97313;-74
2022/03/18 02:07:49;;;;;;;1999.90;999.90;;;;;;;-0.23;59.01;103406.31;4930712;28;97263;-74
2022/03/18 02:10:18;;;;;;;1999.90;999.90;;;;;;;-0.25;59.68;103406.94;4964205;28;99313;-74
2022/03/18 02:12:48;;;;;;;1999.90;999.90;;;;;;;-0.28;59.38;103401.41;4944643;28;99674;-74
2022/03/18 02:15:19;;;;;;;1999.90;999.90;;;;;;;-0.28;59.18;103401.41;4940485;28;96817;-74
2022/03/18 02:17:47;;;;;;;1999.90;999.90;;;;;;;-0.28;59.26;103401.41;4943087;28;96795;-74
2022/03/18 02:20:15;;;;;;;1999.90;999.90;;;;;;;-0.29;59.00;103416.16;4938659;28;99966;-74
2022/03/18 02:22:44;;;;;;;1999.90;999.90;;;;;;;-0.27;59.48;103422.50;4939444;28;99017;-75
2022/03/18 02:25:12;;;;;;;1999.90;999.90;;;;;;;-0.28;59.46;103420.63;4949222;28;97106;-75
2022/03/18 02:27:42;;;;;;;1999.90;999.90;;;;;;;-0.29;59.14;103423.06;4943766;28;98985;-74
2022/03/18 02:30:10;;;;;;;1999.90;999.90;;;;;;;-0.28;59.47;103427.56;4928701;28;98617;-74
2022/03/18 02:32:39;;;;;;;1999.90;999.90;;;;;;;-0.31;59.42;103430.78;4921501;28;99828;-74
2022/03/18 02:35:07;;;;;;;1999.90;999.90;;;;;;;-0.29;59.29;103431.88;4945808;28;96914;-74
2022/03/18 02:37:34;;;;;;;1999.90;999.90;;;;;;;-0.28;59.43;103435.41;4941975;28;96793;-74
2022/03/18 02:40:04;;;;;;;1999.90;999.90;;;;;;;-0.31;59.01;103432.44;4940300;28;97728;-74
2022/03/18 02:42:32;;;;;;;1999.90;999.90;;;;;;;-0.34;59.03;103430.47;4945662;28;98794;-74
2022/03/18 02:45:00;;;;;;;1999.90;999.90;;;;;;;-0.38;59.27;103436.13;4941967;28;97144;-73
2022/03/18 02:47:28;;;;;;;1999.90;999.90;;;;;;;-0.43;59.19;103441.63;4938558;28;96840;-73
2022/03/18 02:49:56;;;;;;;1999.90;999.90;;;;;;;-0.46;59.23;103442.19;4946492;28;99034;-73
2022/03/18 02:52:24;;;;;;;1999.90;999.90;;;;;;;-0.47;59.30;103445.59;4943900;28;97739;-74
2022/03/18 02:54:51;;;;;;;1999.90;999.90;;;;;;;-0.48;59.42;103450.66;4945135;28;98288;-73
2022/03/18 02:57:20;;;;;;;1999.90;999.90;;;;;;;-0.48;59.51;103453.28;4941287;28;96900;-73
2022/03/18 02:59:48;;;;;;;1999.90;999.90;;;;;;;-0.50;59.12;103450.47;4936248;28;99677;-74
2022/03/18 03:02:16;;;;;;;1999.90;999.90;;;;;;;-0.48;59.46;103459.41;4939972;28;97062;-74
2022/03/18 03:10:12;;;;;;;1999.90;999.90;;;;;;;-0.55;59.06;103477.81;4941794;28;100425;-74
2022/03/18 03:12:41;;;;;;;1999.90;999.90;;;;;;;-0.55;59.60;103480.44;4943645;28;98640;-73
2022/03/18 03:15:10;;;;;;;1999.90;999.90;;;;;;;-0.56;59.25;103486.44;4946022;28;96827;-73
2022/03/18 03:17:37;;;;;;;1999.90;999.90;;;;;;;-0.56;58.92;103499.53;4947710;28;96757;-73
2022/03/18 03:20:08;;;;;;;1999.90;999.90;;;;;;;-0.57;59.30;103502.88;4941984;28;98857;-73
2022/03/18 03:22:35;;;;;;;1999.90;999.90;;;;;;;-0.56;59.31;103511.66;4943896;28;98233;-73
2022/03/18 03:25:04;;;;;;;1999.90;999.90;;;;;;;-0.56;59.13;103512.59;4942445;28;97264;-74
2022/03/18 03:27:32;;;;;;;1999.90;999.90;;;;;;;-0.57;59.12;103513.34;4947541;28;97076;-74
2022/03/18 03:30:03;;;;;;;1999.90;999.90;;;;;;;-0.60;59.23;103526.09;4948603;28;97968;-74
2022/03/18 03:32:30;;;;;;;1999.90;999.90;;;;;;;-0.62;59.13;103517.16;4942439;28;98029;-74
2022/03/18 03:34:58;;;;;;;1999.90;999.90;;;;;;;-0.63;59.37;103524.84;4925952;28;97421;-73
2022/03/18 03:37:27;;;;;;;1999.90;999.90;;;;;;;-0.67;58.96;103526.19;4940099;28;97245;-75
2022/03/18 03:39:55;;;;;;;1999.90;999.90;;;;;;;-0.71;59.22;103526.59;4939487;28;98828;-73
2022/03/18 03:42:23;;;;;;;1999.90;999.90;;;;;;;-0.74;59.36;103539.34;4939635;28;97759;-73
2022/03/18 03:44:50;;;;;;;1999.90;999.90;;;;;;;-0.79;59.15;103542.22;4943440;28;97468;-73
2022/03/18 03:47:19;;;;;;;1999.90;999.90;;;;;;;-0.81;59.57;103539.41;4944110;28;96958;-74
2022/03/18 03:49:47;;;;;;;1999.90;999.90;;;;;;;-0.85;59.43;103552.91;4948330;28;97692;-74
2022/03/18 03:52:15;;;;;;;1999.90;999.90;;;;;;;-0.87;59.45;103546.59;4941221;28;98687;-74
2022/03/18 03:54:43;;;;;;;1999.90;999.90;;;;;;;-0.93;59.12;103561.59;4941781;28;96895;-73
2022/03/18 03:57:10;;;;;;;1999.90;999.90;;;;;;;-0.96;59.64;103559.53;4942608;28;97306;-73
2022/03/18 03:59:38;;;;;;;1999.90;999.90;;;;;;;-0.97;59.36;103560.31;4940040;28;97857;-74
2022/03/18 04:02:06;;;;;;;1999.90;999.90;;;;;;;-0.98;59.57;103557.53;4944819;28;97621;-74
2022/03/18 04:04:35;;;;;;;1999.90;999.90;;;;;;;-1.02;59.97;103560.56;4941279;28;96920;-74
2022/03/18 04:07:03;;;;;;;1999.90;999.90;;;;;;;-1.03;59.39;103566.56;4943426;28;96811;-74
2022/03/18 04:09:31;;;;;;;1999.90;999.90;;;;;;;-1.06;59.66;103571.41;4942063;28;100429;-74
2022/03/18 04:11:58;;;;;;;1999.90;999.90;;;;;;;-1.08;59.72;103573.88;4927573;28;99336;-74
2022/03/18 04:14:26;;;;;;;1999.90;999.90;;;;;;;-1.08;60.08;103570.31;4947293;28;96835;-74
2022/03/18 04:16:54;;;;;;;1999.90;999.90;;;;;;;-1.12;59.27;103579.50;4940396;28;96704;-75
2022/03/18 04:19:21;;;;;;;1999.90;999.90;;;;;;;-1.15;59.74;103586.06;4964634;28;100974;-74
2022/03/18 04:21:50;;;;;;;1999.90;999.90;;;;;;;-1.19;60.19;103581.25;4944458;28;98547;-72
2022/03/18 04:24:18;;;;;;;1999.90;999.90;;;;;;;-1.22;59.72;103580.91;4945472;28;97022;-73
2022/03/18 04:26:46;;;;;;;1999.90;999.90;;;;;;;-1.21;59.93;103587.97;4945036;28;96793;-74
2022/03/18 04:29:14;;;;;;;1999.90;999.90;;;;;;;-1.22;59.91;103586.13;4943447;28;97894;-73
2022/03/18 04:31:42;;;;;;;1999.90;999.90;;;;;;;-1.22;59.44;103591.38;4945462;28;97811;-73
2022/03/18 04:34:09;;;;;;;1999.90;999.90;;;;;;;-1.23;59.44;103594.75;4942115;28;96831;-73
2022/03/18 04:36:37;;;;;;;1999.90;999.90;;;;;;;-1.26;59.38;103603.16;4950224;28;97063;-73
2022/03/18 04:39:06;;;;;;;1999.90;999.90;;;;;;;-1.28;59.35;103611.56;4946097;28;102252;-73
2022/03/18 04:41:34;;;;;;;1999.90;999.90;;;;;;;-1.32;59.54;103612.91;4963865;28;99231;-74
2022/03/18 04:44:02;;;;;;;1999.90;999.90;;;;;;;-1.35;59.46;103616.84;4941917;28;97240;-73
2022/03/18 04:46:31;;;;;;;1999.90;999.90;;;;;;;-1.36;59.93;103626.34;4946030;28;96922;-74
2022/03/18 04:48:59;;;;;;;1999.90;999.90;;;;;;;-1.37;60.12;103624.50;4940530;28;98752;-73
2022/03/18 04:51:27;;;;;;;1999.90;999.90;;;;;;;-1.38;59.81;103624.34;4938943;28;97493;-74
2022/03/18 04:53:55;;;;;;;1999.90;999.90;;;;;;;-1.38;60.00;103626.94;4946604;28;96537;-74
2022/03/18 04:59:09;;;;;;;1999.90;999.90;;;;;;;-1.43;59.34;103620.28;4946522;28;99360;-74
2022/03/18 05:01:37;;;;;;;1999.90;999.90;;;;;;;-1.45;59.88;103624.41;4943233;28;99209;-74
2022/03/18 05:04:05;;;;;;;1999.90;999.90;;;;;;;-1.47;59.58;103629.41;4947011;28;97205;-73
2022/03/18 05:06:33;;;;;;;1999.90;999.90;;;;;;;-1.49;60.08;103635.25;4944625;28;96705;-75
2022/03/18 05:09:02;;;;;;;1999.90;999.90;;;;;;;-1.51;60.00;103628.91;4945677;28;98755;-74
2022/03/18 05:11:32;;;;;;;1999.90;999.90;;;;;;;-1.52;60.33;103637.50;4943088;28;101111;-74
2022/03/18 05:13:59;;;;;;;1999.90;999.90;;;;;;;-1.52;59.58;103651.47;4944637;28;97136;-74
2022/03/18 05:16:27;;;;;;;1999.90;999.90;;;;;;;-1.52;59.62;103653.19;4945270;28;97271;-73
2022/03/18 05:18:55;;;;;;;1999.90;999.90;;;;;;;-1.53;59.52;103656.53;4940098;28;98770;-74
2022/03/18 05:21:23;;;;;;;1999.90;999.90;;;;;;;-1.52;60.25;103659.31;4941216;28;99563;-74
2022/03/18 05:23:52;;;;;;;1999.90;999.90;;;;;;;-1.53;59.53;103661.75;4945003;28;96890;-74
2022/03/18 05:26:20;;;;;;;1999.90;999.90;;;;;;;-1.53;59.55;103662.69;4941249;28;96728;-73
2022/03/18 05:28:49;;;;;;;1999.90;999.90;;;;;;;-1.53;59.32;103667.91;4939438;28;97724;-74
2022/03/18 05:31:17;;;;;;;1999.90;999.90;;;;;;;-1.52;59.60;103668.84;4945394;28;97592;-73
2022/03/18 05:33:44;;;;;;;1999.90;999.90;;;;;;;-1.53;60.09;103672.19;4925949;28;97260;-74
2022/03/18 05:36:12;;;;;;;1999.90;999.90;;;;;;;-1.54;60.05;103668.63;4949406;28;97947;-73
2022/03/18 05:38:40;;;;;;;1999.90;999.90;;;;;;;-1.53;60.26;103680.97;4943546;28;97788;-73
2022/03/18 05:41:09;;;;;;;1999.90;999.90;;;;;;;-1.54;59.61;103693.84;4946554;28;97320;-74
2022/03/18 05:43:37;;;;;;;1999.90;999.90;;;;;;;-1.53;60.04;103691.41;4946900;28;96911;-74
2022/03/18 05:46:05;;;;;;;1999.90;999.90;;;;;;;-1.55;59.80;103689.34;4931410;28;96854;-73
2022/03/18 05:48:34;;;;;;;1999.90;999.90;;;;;;;-1.53;60.14;103695.69;4943506;28;97942;-73
2022/03/18 05:51:02;;;;;;;1999.90;999.90;;;;;;;-1.53;59.88;103693.06;4943961;28;99814;-73
2022/03/18 05:53:29;;;;;;;1999.90;999.90;;;;;;;-1.51;59.16;103696.81;4943869;28;97737;-73
2022/03/18 05:58:43;;;;;;;1999.90;999.90;;;;;;;-1.50;59.37;103711.69;4927514;28;99534;-73
2022/03/18 06:01:12;;;;;;;1999.90;999.90;;;;;;;-1.51;59.98;103712.47;4940793;28;99494;-73
2022/03/18 06:03:41;;;;;;;1999.90;999.90;;;;;;;-1.49;59.42;103710.97;4945198;28;97626;-72
2022/03/18 06:06:09;;;;;;;1999.90;999.90;;;;;;;-1.46;59.45;103721.75;4940354;28;97235;-74
2022/03/18 06:14:07;;;;;;;1999.90;999.90;;;;;;;-1.38;59.77;103716.69;4942271;28;96760;-74
2022/03/18 06:16:37;;;;;;;1999.90;999.90;;;;;;;-1.34;58.98;103723.19;4941344;28;97880;-75
2022/03/18 06:19:05;;;;;;;1999.90;999.90;;;;;;;-1.33;59.44;103722.44;4958451;28;99273;-75
2022/03/18 06:21:33;;;;;;;1999.90;999.90;;;;;;;-1.28;59.55;103723.88;4941994;28;96891;-74
2022/03/18 06:24:00;;;;;;;1999.90;999.90;;;;;;;-1.24;59.76;103726.09;4944500;28;99045;-74
2022/03/18 06:26:30;;;;;;;1999.90;999.90;;;;;;;-1.21;59.42;103737.84;4941659;28;97450;-74
2022/03/18 06:28:58;;;;;;;1999.90;999.90;;;;;;;-1.18;59.03;103738.22;4939061;28;98082;-74
2022/03/18 06:31:26;;;;;;;1999.90;999.90;;;;;;;-1.15;59.09;103743.78;4942849;28;98676;-75
2022/03/18 06:33:55;;;;;;;1999.90;999.90;;;;;;;-1.13;59.06;103743.94;4943565;28;96885;-74
2022/03/18 06:36:23;;;;;;;1999.90;999.90;;;;;;;-1.09;58.87;103748.78;4942396;28;96864;-74
2022/03/18 06:38:51;;;;;;;1999.90;999.90;;;;;;;-1.05;58.88;103745.78;4942694;28;98915;-74
2022/03/18 06:41:19;;;;;;;1999.90;999.90;;;;;;;-1.04;58.90;103753.78;4939349;28;98223;-74
2022/03/18 06:43:47;;;;;;;1999.90;999.90;;;;;;;-1.07;58.80;103747.28;4944558;28;97170;-74
2022/03/18 06:46:15;;;;;;;1999.90;999.90;;;;;;;-1.06;58.85;103754.34;4943043;28;96778;-74
2022/03/18 06:48:43;;;;;;;1999.90;999.90;;;;;;;-1.04;59.42;103758.06;4940553;28;98689;-74
2022/03/18 06:51:12;;;;;;;1999.90;999.90;;;;;;;-1.02;59.20;103761.78;4940487;28;100670;-74
2022/03/18 06:53:42;;;;;;;1999.90;999.90;;;;;;;-1.01;58.96;103758.41;4943292;28;96894;-74
2022/03/18 06:56:12;;;;;;;1999.90;999.90;;;;;;;-0.99;59.01;103767.34;4944176;28;97193;-75
2022/03/18 06:58:40;;;;;;;1999.90;999.90;;;;;;;-1.01;59.18;103761.97;4939815;28;100846;-74
2022/03/18 07:01:07;;;;;;;1999.90;999.90;;;;;;;-1.04;59.31;103779.91;4940204;28;97898;-74
2022/03/18 07:03:35;;;;;;;1999.90;999.90;;;;;;;-1.04;58.85;103773.75;4936596;28;96987;-74
2022/03/18 07:06:03;;;;;;;1999.90;999.90;;;;;;;-1.03;59.30;103781.75;4944014;28;97774;-76
2022/03/18 07:08:33;;;;;;;1999.90;999.90;;;;;;;-1.00;59.02;103786.41;4942025;28;99315;-74
2022/03/18 07:11:01;;;;;;;1999.90;999.90;;;;;;;-0.95;58.76;103799.25;4943452;28;98697;-74
2022/03/18 07:13:28;;;;;;;1999.90;999.90;;;;;;;-0.92;58.56;103799.59;4942275;28;97764;-74
2022/03/18 07:17:54;;;;;;;1999.90;999.90;;;;;;;-0.89;58.44;103799.03;4940438;28;97201;-74
2022/03/18 07:18:43;;;;;;;1999.90;999.90;;;;;;;-0.88;58.73;103798.28;4946130;28;97695;-74
2022/03/18 07:21:14;;;;;;;1999.90;999.90;;;;;;;-0.86;58.65;103791.53;4949457;28;98198;-74
2022/03/18 07:23:43;;;;;;;1999.90;999.90;;;;;;;-0.83;58.73;103797.16;4943442;28;97019;-74
2022/03/18 07:26:10;;;;;;;1999.90;999.90;;;;;;;-0.78;58.91;103801.19;4940691;28;97090;-75
2022/03/18 07:28:38;;;;;;;1999.90;999.90;;;;;;;-0.74;59.04;103803.44;4946256;28;97759;-73
2022/03/18 07:31:06;;;;;;;1999.90;999.90;;;;;;;-0.70;58.57;103805.59;4937860;28;98514;-74
2022/03/18 07:33:33;;;;;;;1999.90;999.90;;;;;;;-0.66;59.04;103802.59;4936281;28;97217;-75
2022/03/18 07:36:01;;;;;;;1999.90;999.90;;;;;;;-0.62;58.96;103817.88;4936723;28;98609;-73
2022/03/18 07:38:29;;;;;;;1999.90;999.90;;;;;;;-0.59;58.85;103819.94;4948471;28;98812;-74
2022/03/18 07:40:58;;;;;;;1999.90;999.90;;;;;;;-0.55;58.61;103816.88;4949761;28;99242;-75
2022/03/18 07:43:26;;;;;;;1999.90;999.90;;;;;;;-0.52;58.53;103818.16;4944287;28;97843;-74
2022/03/18 07:45:54;;;;;;;1999.90;999.90;;;;;;;-0.47;58.86;103817.03;4938474;28;97413;-76
2022/03/18 07:48:26;;;;;;;1999.90;999.90;;;;;;;-0.44;59.01;103821.66;4951738;28;98884;-74
2022/03/18 07:50:54;;;;;;;1999.90;999.90;;;;;;;-0.39;58.70;103815.28;4965519;28;99418;-77
2022/03/18 07:53:22;;;;;;;1999.90;999.90;;;;;;;-0.34;58.48;103829.81;4945401;28;96983;-76
2022/03/18 07:55:49;;;;;;;1999.90;999.90;;;;;;;-0.29;58.41;103840.03;4947268;28;96982;-74
2022/03/18 07:58:18;;;;;;;1999.90;999.90;;;;;;;-0.22;58.45;103845.19;4954699;28;99635;-75
2022/03/18 08:00:46;;;;;;;1999.90;999.90;;;;;;;-0.14;58.55;103836.53;4945599;28;99645;-76
2022/03/18 08:03:14;;;;;;;1999.90;999.90;;;;;;;-0.08;58.44;103849.34;4944734;28;98056;-75
2022/03/18 08:05:42;;;;;;;1999.90;999.90;;;;;;;-0.01;58.25;103854.56;4962735;28;96849;-75
2022/03/18 08:08:10;;;;;;;1999.90;999.90;;;;;;;0.07;58.20;103853.69;4940823;28;98281;-77
2022/03/18 08:10:38;;;;;;;1999.90;999.90;;;;;;;0.13;57.89;103844.88;4938342;28;97794;-74
2022/03/18 08:13:06;;;;;;;1999.90;999.90;;;;;;;0.19;57.94;103850.75;4939014;28;97474;-77
2022/03/18 08:15:36;;;;;;;1999.90;999.90;;;;;;;0.25;58.02;103850.56;4931360;28;96885;-74
2022/03/18 08:18:05;;;;;;;1999.90;999.90;;;;;;;0.31;58.07;103845.06;4959202;28;99062;-74
2022/03/18 08:20:39;;;;;;;1999.90;999.90;;;;;;;0.38;58.09;103852.84;4940475;28;99265;-74
2022/03/18 08:23:07;;;;;;;1999.90;999.90;;;;;;;0.43;57.79;103856.94;4941200;28;97140;-74
2022/03/18 08:25:35;;;;;;;1999.90;999.90;;;;;;;0.47;57.77;103854.78;4940626;28;97185;-75
2022/03/18 08:28:05;;;;;;;1999.90;999.90;;;;;;;0.55;57.27;103859.19;4930146;28;99383;-75
2022/03/18 08:30:36;;;;;;;1999.90;999.90;;;;;;;0.60;57.65;103862.31;4943855;28;99309;-73
2022/03/18 08:33:05;;;;;;;1999.90;999.90;;;;;;;0.68;57.55;103864.09;4944008;28;97230;-72
2022/03/18 08:35:36;;;;;;;1999.90;999.90;;;;;;;0.73;57.07;103866.47;4942521;28;97154;-75
2022/03/18 08:38:07;;;;;;;1999.90;999.90;;;;;;;0.82;57.28;103869.16;4944117;28;98943;-75
2022/03/18 08:40:36;;;;;;;1999.90;999.90;;;;;;;0.84;57.38;103867.63;4949243;28;98206;-73
2022/03/18 08:43:05;;;;;;;1999.90;999.90;;;;;;;0.86;56.56;103869.66;4946033;28;99864;-74
2022/03/18 08:45:34;;;;;;;1999.90;999.90;;;;;;;0.84;57.06;103865.00;4939318;28;96993;-75
2022/03/18 08:48:04;;;;;;;1999.90;999.90;;;;;;;0.86;57.34;103868.72;4949218;28;97762;-75
2022/03/18 08:50:32;;;;;;;1999.90;999.90;;;;;;;0.90;57.29;103870.94;4947046;28;99037;-73
2022/03/18 08:53:00;;;;;;;1999.90;999.90;;;;;;;0.94;57.30;103870.50;4943197;28;96836;-73
2022/03/18 08:55:28;;;;;;;1999.90;999.90;;;;;;;0.98;57.03;103875.28;4943292;28;98456;-72
2022/03/18 08:57:56;;;;;;;1999.90;999.90;;;;;;;1.02;57.16;103873.19;4941233;28;98936;-72
2022/03/18 09:00:23;;;;;;;1999.90;999.90;;;;;;;1.15;56.78;103880.69;4943381;28;98805;-72
2022/03/18 09:02:52;;;;;;;1999.90;999.90;;;;;;;1.12;56.26;103881.28;4947614;28;96906;-72
2022/03/18 09:05:21;;;;;;;1999.90;999.90;;;;;;;1.17;56.40;103879.16;4947515;28;96938;-72
2022/03/18 09:07:49;;;;;;;1999.90;999.90;;;;;;;1.21;56.64;103871.78;4946936;28;97758;-72
2022/03/18 09:10:16;;;;;;;1999.90;999.90;;;;;;;1.25;56.54;103878.31;4943233;28;98103;-72
2022/03/18 09:12:45;;;;;;;1999.90;999.90;;;;;;;1.27;56.35;103874.13;4944691;28;96753;-71
2022/03/18 09:15:13;;;;;;;1999.90;999.90;;;;;;;1.31;56.60;103886.81;4948026;28;97115;-71
2022/03/18 09:17:41;;;;;;;1999.90;999.90;;;;;;;1.34;56.46;103889.78;4946277;28;96557;-71
2022/03/18 09:20:09;;;;;;;1999.90;999.90;;;;;;;1.36;56.87;103889.94;4943398;28;99065;-72
2022/03/18 09:22:38;;;;;;;1999.90;999.90;;;;;;;1.38;56.76;103886.72;4946390;28;96805;-71
2022/03/18 09:25:07;;;;;;;1999.90;999.90;;;;;;;1.41;56.22;103891.38;4946549;28;96801;-72
2022/03/18 09:27:35;;;;;;;1999.90;999.90;;;;;;;1.43;56.16;103896.03;4941504;28;101104;-71
2022/03/18 09:30:08;;;;;;;1999.90;999.90;;;;;;;1.44;55.87;103904.81;4945012;28;96928;-71
2022/03/18 09:32:35;;;;;;;1999.90;999.90;;;;;;;1.44;55.81;103907.44;4942909;28;97088;-72
2022/03/18 09:35:04;;;;;;;1999.90;999.90;;;;;;;1.46;56.11;103911.16;4942001;28;97299;-71
2022/03/18 09:37:32;;;;;;;1999.90;999.90;;;;;;;1.45;56.33;103899.72;4939687;28;99072;-71
2022/03/18 09:40:04;;;;;;;1999.90;999.90;;;;;;;1.46;55.99;103891.09;4943897;28;99261;-71
2022/03/18 09:42:56;;;;;;;1999.90;999.90;;;;;;;1.50;55.53;103900.22;4943171;28;97321;-71
2022/03/18 09:45:25;;;;;;;1999.90;999.90;;;;;;;1.52;55.78;103912.75;4924514;28;97929;-72
2022/03/18 09:47:53;;;;;;;1999.90;999.90;;;;;;;1.52;55.29;103896.06;4942330;28;97406;-72
2022/03/18 09:50:21;;;;;;;1999.90;999.90;;;;;;;1.56;55.98;103901.78;4939452;28;98391;-71
2022/03/18 09:52:49;;;;;;;1999.90;999.90;;;;;;;1.59;55.56;103901.22;4948225;28;97676;-72
2022/03/18 09:55:18;;;;;;;1999.90;999.90;;;;;;;1.65;55.52;103905.41;4941492;28;97084;-72
2022/03/18 09:57:46;;;;;;;1999.90;999.90;;;;;;;1.72;55.61;103913.19;4935044;28;100831;-71
2022/03/18 10:00:14;;;;;;;1999.90;999.90;;;;;;;1.80;55.16;103914.91;4942046;28;97663;-72
2022/03/18 10:02:42;;;;;;;1999.90;999.90;;;;;;;1.85;54.81;103915.41;4939315;28;96828;-72
2022/03/18 10:05:11;;;;;;;1999.90;999.90;;;;;;;1.91;54.30;103908.16;4936163;28;98508;-72
2022/03/18 10:07:39;;;;;;;1999.90;999.90;;;;;;;1.95;54.73;103913.91;4939048;28;99584;-73
2022/03/18 10:10:11;;;;;;;1999.90;999.90;;;;;;;2.00;54.76;103917.94;4940059;28;99517;-73
2022/03/18 10:12:41;;;;;;;1999.90;999.90;;;;;;;2.07;54.88;103928.34;4940367;28;98810;-72
2022/03/18 10:15:12;;;;;;;1999.90;999.90;;;;;;;2.13;54.22;103931.66;4937411;28;96933;-74
2022/03/18 10:17:46;;;;;;;1999.90;999.90;;;;;;;2.16;54.56;103929.34;4942325;28;98761;-73
2022/03/18 10:20:24;;;;;;;1999.90;999.90;;;;;;;2.24;54.53;103939.75;4940920;28;96861;-73
2022/03/18 10:22:53;;;;;;;1999.90;999.90;;;;;;;2.31;53.72;103931.72;4941512;28;97297;-74
2022/03/18 10:25:40;;;;;;;1999.90;999.90;;;;;;;2.33;53.67;103936.34;4945588;28;96953;-74
2022/03/18 10:28:11;;;;;;;1999.90;999.90;;;;;;;2.39;53.52;103944.88;4939219;28;100575;-74
2022/03/18 10:30:38;;;;;;;1999.90;999.90;;;;;;;2.42;53.33;103953.09;4941122;28;99468;-75
2022/03/18 10:33:12;;;;;;;1999.90;999.90;;;;;;;2.47;53.79;103945.69;4934129;28;97124;-73
2022/03/18 10:38:28;;;;;;;1999.90;999.90;;;;;;;2.52;53.29;103937.53;4937378;28;99507;-75
2022/03/18 10:40:57;;;;;;;1999.90;999.90;;;;;;;2.56;53.22;103941.38;4940749;28;98663;-76
2022/03/18 10:43:26;;;;;;;1999.90;999.90;;;;;;;2.61;53.58;103940.16;4935852;28;96924;-73
2022/03/18 10:46:03;;;;;;;1999.90;999.90;;;;;;;2.60;53.39;103936.59;4944155;28;99125;-75
2022/03/18 10:48:32;;;;;;;1999.90;999.90;;;;;;;2.65;53.63;103943.28;4940290;28;99473;-73
2022/03/18 10:51:07;;;;;;;1999.90;999.90;;;;;;;2.67;53.35;103938.16;4942047;28;100673;-72
2022/03/18 10:53:37;;;;;;;1999.90;999.90;;;;;;;2.72;53.02;103942.19;4949666;28;97450;-74
2022/03/18 10:56:05;;;;;;;1999.90;999.90;;;;;;;2.75;53.68;103930.28;4941190;28;97156;-73
2022/03/18 10:58:34;;;;;;;1999.90;999.90;;;;;;;2.80;52.99;103930.78;4942830;28;97665;-74
2022/03/18 11:01:03;;;;;;;1999.90;999.90;;;;;;;2.87;52.93;103926.31;4940972;28;98208;-75
2022/03/18 11:03:33;;;;;;;1999.90;999.90;;;;;;;2.94;52.99;103928.78;4958281;28;96786;-77
2022/03/18 11:06:03;;;;;;;1999.90;999.90;;;;;;;3.03;52.96;103927.09;4938637;28;96996;-76
2022/03/18 11:08:40;;;;;;;1999.90;999.90;;;;;;;3.12;53.12;103930.66;4943636;28;99069;-73
2022/03/18 11:11:10;;;;;;;1999.90;999.90;;;;;;;3.20;52.90;103923.53;4940491;28;97544;-75
2022/03/18 11:13:49;;;;;;;1999.90;999.90;;;;;;;3.23;52.45;103924.75;4936937;28;96710;-75
2022/03/18 11:16:21;;;;;;;1999.90;999.90;;;;;;;3.28;52.57;103922.56;4938211;28;96742;-73
2022/03/18 11:18:50;;;;;;;1999.90;999.90;;;;;;;3.32;52.76;103924.75;4939555;28;100612;-74
2022/03/18 11:21:18;;;;;;;1999.90;999.90;;;;;;;3.37;52.65;103918.22;4939285;28;99201;-74